Washington, DC (20505)

8:16 AM EDT on August 31, 2014 (GMT -0400)
Logan Circle | Change Station
CLOSE
Current Station
Personal Weather Station
Location: Washington, DC
Elevation: 108 ft
Nearby Weather Stations

Elev 108 ft 38.91 °N, 77.03 °W | Updated 5 seconds ago

Mostly Cloudy
Mostly Cloudy
76.7 °F
Feels Like 78 °F
N
0.0
Wind Variable Wind from North
Gusts 0.0 mph

Today
High -- | Low -- °F
--% Chance of Precip.
Yesterday
High -- | Low -- °F
Precip. -- in
6:36 AM 7:40 PM
Waxing Crescent, 30% visible
Pressure 30.12 in
Visibility 9.0 miles
Clouds Mostly Cloudy 1100 ft
Mostly Cloudy 25000 ft
Heat Index 78 °F
Dew Point 72 °F
Humidity 84%
Rainfall 0.00 in
Snow Depth Not available.
UV 1 out of 12
Pollen 9.40 out of 12
Air Quality Not available.
Flu Activity Not available.
SPECI KDCA 311211Z 19010KT 9SM BKN011 BKN250 26/22 A3012 RMK AO2 $

More Conditions Fewer Conditions

Pressure 30.12 in
Visibility 9.0 miles
Clouds Mostly Cloudy 1100 ft
Mostly Cloudy 25000 ft
Heat Index 78 °F
Dew Point 72 °F
Humidity 84%
Rainfall 0.00 in
Snow Depth Not available.
UV 1 out of 12
Pollen 9.40 out of 12
Air Quality Not available.
Flu Activity Not available.
SPECI KDCA 311211Z 19010KT 9SM BKN011 BKN250 26/22 A3012 RMK AO2 $

More Conditions Fewer Conditions

10-Day Weather Forecast

Almanac

Astronomy

Aug. 31, 2014 Rise Set
Actual Time 6:36 AM EDT 7:40 PM EDT
Civil Twilight 6:08 AM EDT 8:07 PM EDT
Nautical Twilight 5:36 AM EDT 8:39 PM EDT
Astronomical Twilight 5:02 AM EDT 9:13 PM EDT
Moon 12:17 PM EDT 10:57 PM EDT
Length of Visible Light 13h 58m
Length of Day
13h 03m
Tomorrow will be 2m 25s shorter.
Waxing Crescent, 30% of the Moon is Illuminated
Today
Waxing Crescent
Sep 2
First Quarter
Sep 8
Full
Sep 15
Last Quarter
Sep 24
New

Today's Extremes

State Highs State Lows

Community

WunderPhotos

Upload Photos

1,748,853 photos uploaded!

Nearby

Snow Depth

Station Depth Elevation
No new snow has been reported.

Earthquake Activity

City Distance Mag. Time & Date
No recent earthquake activity has been reported nearby.
Minimum magnitude displayed is 2.5.

Coastal Water Temperatures

Place Temperature
Washington, DC 79.0 °F
Baltimore, MD 80.1 °F
Solomons Island, MD 79.0 °F

Nearby Weather Stations